createdAt,value
2023-01-25T00:01:53.087Z,19.30
2023-01-25T00:04:20.972Z,19.97
2023-01-25T00:06:48.327Z,20.77
2023-01-25T00:09:15.731Z,19.13
2023-01-25T00:11:43.435Z,20.03
2023-01-25T00:14:11.159Z,19.90
2023-01-25T00:16:39.013Z,18.73
2023-01-25T00:19:07.183Z,19.47
2023-01-25T00:21:34.911Z,18.00
2023-01-25T00:24:02.256Z,18.43
2023-01-25T00:26:33.110Z,17.30
2023-01-25T00:29:00.361Z,17.87
2023-01-25T00:31:33.485Z,19.37
2023-01-25T00:34:19.346Z,18.03
2023-01-25T00:36:46.592Z,17.50
2023-01-25T00:39:14.161Z,18.47
2023-01-25T00:41:41.366Z,18.73
2023-01-25T00:44:08.823Z,18.10
2023-01-25T00:46:35.891Z,19.27
2023-01-25T00:49:03.039Z,18.57
2023-01-25T00:51:30.236Z,17.73
2023-01-25T00:53:57.395Z,17.83
2023-01-25T00:56:24.671Z,19.07
2023-01-25T00:58:51.861Z,18.00
2023-01-25T01:01:19.031Z,18.70
2023-01-25T01:03:46.187Z,18.23
2023-01-25T01:06:13.537Z,17.83
2023-01-25T01:08:41.422Z,18.07
2023-01-25T01:11:09.832Z,18.40
2023-01-25T01:13:37.149Z,17.53
2023-01-25T01:16:05.545Z,17.90
2023-01-25T01:18:36.958Z,18.13
2023-01-25T01:21:04.338Z,18.70
2023-01-25T01:23:32.086Z,17.10
2023-01-25T01:26:02.944Z,17.53
2023-01-25T01:28:30.569Z,18.23
2023-01-25T01:31:04.403Z,17.03
2023-01-25T01:33:32.496Z,18.03
2023-01-25T01:36:07.002Z,18.03
2023-01-25T01:38:34.150Z,17.77
2023-01-25T01:41:01.283Z,17.33
2023-01-25T01:43:28.447Z,17.13
2023-01-25T01:45:56.941Z,18.03
2023-01-25T01:48:39.375Z,17.90
2023-01-25T01:51:06.501Z,16.70
2023-01-25T01:53:34.608Z,17.23
2023-01-25T01:56:03.802Z,17.27
2023-01-25T01:58:31.518Z,17.20
2023-01-25T02:00:58.898Z,17.67
2023-01-25T02:03:26.514Z,17.33
2023-01-25T02:06:05.134Z,15.97
2023-01-25T02:08:33.913Z,17.33
2023-01-25T02:11:01.788Z,16.73
2023-01-25T02:13:29.236Z,16.10
2023-01-25T02:15:56.564Z,16.57
2023-01-25T02:18:25.132Z,17.20
2023-01-25T02:20:53.251Z,17.33
2023-01-25T02:23:33.397Z,17.50
2023-01-25T02:26:05.215Z,16.60
2023-01-25T02:28:47.751Z,17.70
2023-01-25T02:31:15.040Z,17.90
2023-01-25T02:33:42.373Z,17.23
2023-01-25T02:36:09.433Z,18.40
2023-01-25T02:38:38.141Z,18.00
2023-01-25T02:41:08.792Z,17.20
2023-01-25T02:43:36.236Z,17.27
2023-01-25T02:46:19.620Z,17.17
2023-01-25T02:48:46.739Z,18.00
2023-01-25T02:51:13.931Z,17.27
2023-01-25T02:53:41.247Z,17.80
2023-01-25T02:56:08.611Z,17.20
2023-01-25T02:58:35.768Z,16.57
2023-01-25T03:01:02.972Z,17.70
2023-01-25T03:03:30.107Z,18.87
2023-01-25T03:05:57.310Z,18.23
2023-01-25T03:08:24.580Z,17.37
2023-01-25T03:10:51.761Z,17.47
2023-01-25T03:13:18.908Z,16.37
2023-01-25T03:15:46.060Z,17.20
2023-01-25T03:18:13.180Z,16.70
2023-01-25T03:20:40.311Z,16.63
2023-01-25T03:23:07.495Z,17.20
2023-01-25T03:25:34.575Z,17.27
2023-01-25T03:28:01.749Z,18.27
2023-01-25T03:30:28.844Z,16.87
2023-01-25T03:32:55.929Z,17.33
2023-01-25T03:35:23.108Z,17.50
2023-01-25T03:37:50.236Z,18.90
2023-01-25T03:40:17.461Z,17.77
2023-01-25T03:42:44.968Z,18.20
2023-01-25T03:45:14.381Z,17.77
2023-01-25T03:47:42.401Z,18.77
2023-01-25T03:50:09.960Z,18.50
2023-01-25T03:52:40.748Z,18.57
2023-01-25T03:55:08.366Z,18.53
2023-01-25T03:57:35.678Z,18.73
2023-01-25T04:00:02.947Z,17.63
2023-01-25T04:02:30.064Z,18.87
2023-01-25T04:04:57.201Z,19.17
2023-01-25T04:07:24.377Z,18.33
2023-01-25T04:09:52.247Z,17.93
2023-01-25T04:12:19.385Z,18.77
2023-01-25T04:14:46.510Z,18.97
2023-01-25T04:17:14.166Z,19.37
2023-01-25T04:19:41.309Z,18.43
2023-01-25T04:22:08.979Z,19.57
2023-01-25T04:24:36.075Z,19.73
2023-01-25T04:27:03.446Z,19.60
2023-01-25T04:29:40.593Z,20.47
2023-01-25T04:32:08.544Z,20.37
2023-01-25T04:34:35.752Z,21.10
2023-01-25T04:37:02.860Z,18.80
2023-01-25T04:39:30.063Z,18.93
2023-01-25T04:41:57.218Z,19.30
2023-01-25T04:44:24.375Z,19.10
2023-01-25T04:46:51.500Z,19.47
2023-01-25T04:49:18.743Z,18.67
2023-01-25T04:51:45.906Z,19.63
2023-01-25T04:54:13.079Z,19.23
2023-01-25T04:56:40.242Z,20.50
2023-01-25T04:59:07.432Z,20.50
2023-01-25T05:01:34.879Z,19.60
2023-01-25T05:04:02.125Z,20.13
2023-01-25T05:06:29.306Z,21.53
2023-01-25T05:08:56.459Z,20.83
2023-01-25T05:11:23.586Z,19.70
2023-01-25T05:13:51.985Z,20.77
2023-01-25T05:16:19.157Z,21.40
2023-01-25T05:18:48.815Z,20.53
2023-01-25T05:21:34.982Z,19.03
2023-01-25T05:24:02.174Z,20.00
2023-01-25T05:26:47.964Z,19.73
2023-01-25T05:29:15.062Z,20.33
2023-01-25T05:31:42.195Z,19.50
2023-01-25T05:34:10.098Z,19.03
2023-01-25T05:36:37.262Z,20.23
2023-01-25T05:39:06.562Z,20.50
2023-01-25T05:41:33.724Z,20.83
2023-01-25T05:44:00.960Z,20.23
2023-01-25T05:46:28.791Z,19.77
2023-01-25T05:48:56.042Z,21.40
2023-01-25T05:51:23.293Z,20.83
2023-01-25T05:53:50.534Z,19.40
2023-01-25T05:56:17.694Z,20.30
2023-01-25T05:58:44.880Z,23.50
2023-01-25T06:01:12.073Z,20.83
2023-01-25T06:03:39.337Z,21.37
2023-01-25T06:06:06.675Z,21.63
2023-01-25T06:08:33.873Z,20.93
2023-01-25T06:11:06.680Z,21.07
2023-01-25T06:13:33.886Z,20.50
2023-01-25T06:16:01.141Z,23.53
2023-01-25T06:18:31.418Z,22.53
2023-01-25T06:20:59.306Z,27.93
2023-01-25T06:23:26.853Z,32.77
2023-01-25T06:25:55.274Z,29.33
2023-01-25T06:28:22.426Z,29.00
2023-01-25T06:30:49.567Z,29.70
2023-01-25T06:33:16.767Z,27.80
2023-01-25T06:35:44.140Z,27.00
2023-01-25T06:38:11.324Z,27.37
2023-01-25T06:40:38.489Z,27.33
2023-01-25T06:43:09.027Z,25.03
2023-01-25T06:45:36.340Z,25.37
2023-01-25T06:48:03.742Z,26.33
2023-01-25T06:50:30.947Z,26.57
2023-01-25T06:52:58.111Z,25.37
2023-01-25T06:55:25.344Z,25.80
2023-01-25T06:57:52.624Z,26.23
2023-01-25T07:00:19.911Z,25.97
2023-01-25T07:02:47.160Z,29.73
2023-01-25T07:05:14.453Z,30.63
2023-01-25T07:07:45.144Z,29.80
2023-01-25T07:10:12.445Z,30.00
2023-01-25T07:12:39.633Z,30.23
2023-01-25T07:15:07.729Z,30.67
2023-01-25T07:17:35.105Z,31.50
2023-01-25T07:20:02.402Z,33.63
2023-01-25T07:22:29.588Z,30.70
2023-01-25T07:24:58.953Z,30.43
2023-01-25T07:27:26.114Z,28.87
2023-01-25T07:29:53.382Z,30.30
2023-01-25T07:32:20.776Z,30.23
2023-01-25T07:34:48.078Z,30.43
2023-01-25T07:37:15.278Z,30.80
2023-01-25T07:39:48.243Z,29.53
2023-01-25T07:42:15.400Z,30.80
2023-01-25T07:44:42.568Z,29.60
2023-01-25T07:47:09.708Z,32.03
2023-01-25T07:49:36.921Z,30.57
2023-01-25T07:52:04.662Z,32.27
2023-01-25T07:54:31.791Z,34.37
2023-01-25T07:56:59.035Z,32.43
2023-01-25T07:59:26.347Z,33.60
2023-01-25T08:01:53.518Z,36.50
2023-01-25T08:04:20.675Z,32.63
2023-01-25T08:06:47.856Z,32.83
2023-01-25T08:09:19.774Z,33.17
2023-01-25T08:11:49.242Z,35.43
2023-01-25T08:14:16.480Z,32.57
2023-01-25T08:16:43.819Z,33.73
2023-01-25T08:19:11.792Z,33.83
2023-01-25T08:21:39.150Z,32.27
2023-01-25T08:24:07.546Z,33.50
2023-01-25T08:26:35.587Z,33.77
2023-01-25T08:29:03.116Z,33.40
2023-01-25T08:31:31.452Z,34.13
2023-01-25T08:33:59.205Z,35.07
2023-01-25T08:36:28.212Z,33.87
2023-01-25T08:38:57.087Z,34.23
2023-01-25T08:41:24.554Z,34.60
2023-01-25T08:43:53.128Z,33.63
2023-01-25T08:46:21.042Z,35.00
2023-01-25T08:48:48.253Z,36.33
2023-01-25T08:51:16.958Z,35.53
2023-01-25T08:53:44.218Z,36.23
2023-01-25T08:56:12.565Z,36.20
2023-01-25T08:58:40.864Z,36.80
2023-01-25T09:01:09.346Z,34.37
2023-01-25T09:03:37.912Z,36.10
2023-01-25T09:06:05.202Z,39.57
2023-01-25T09:08:32.707Z,37.40
2023-01-25T09:11:03.459Z,36.97
2023-01-25T09:13:30.712Z,34.60
2023-01-25T09:16:17.212Z,35.17
2023-01-25T09:18:45.308Z,37.60
2023-01-25T09:21:13.866Z,36.93
2023-01-25T09:23:50.828Z,36.07
2023-01-25T09:26:24.826Z,35.03
2023-01-25T09:28:53.260Z,36.63
2023-01-25T09:31:23.665Z,34.53
2023-01-25T09:33:52.447Z,36.77
2023-01-25T09:36:20.063Z,34.77
2023-01-25T09:38:48.629Z,35.90
2023-01-25T09:41:34.486Z,35.13
2023-01-25T09:44:14.825Z,35.33
2023-01-25T09:46:48.999Z,34.57
2023-01-25T09:49:22.065Z,36.07
2023-01-25T09:51:58.385Z,35.70
2023-01-25T09:54:29.930Z,34.10
2023-01-25T09:56:59.363Z,32.33
2023-01-25T09:59:30.602Z,33.07
2023-01-25T10:01:57.782Z,36.07
2023-01-25T10:04:31.036Z,35.63
2023-01-25T10:07:01.671Z,36.00
2023-01-25T10:09:41.472Z,35.00
2023-01-25T10:12:22.095Z,33.70
2023-01-25T10:14:49.579Z,33.90
2023-01-25T10:17:31.950Z,33.57
2023-01-25T10:20:01.935Z,38.87
2023-01-25T10:22:30.239Z,35.80
2023-01-25T10:25:19.700Z,36.43
2023-01-25T10:27:46.874Z,36.80
2023-01-25T10:30:28.705Z,35.70
2023-01-25T10:32:58.399Z,36.73
2023-01-25T10:35:35.331Z,36.67
2023-01-25T10:38:12.650Z,38.47
2023-01-25T10:40:47.167Z,37.43
2023-01-25T10:43:24.022Z,36.80
2023-01-25T10:45:51.527Z,39.97
2023-01-25T10:48:20.839Z,40.10
2023-01-25T10:50:52.111Z,36.63
2023-01-25T10:53:39.595Z,36.80
2023-01-25T10:56:17.128Z,36.53
2023-01-25T10:58:46.241Z,38.57
2023-01-25T11:01:25.465Z,37.50
2023-01-25T11:03:53.123Z,37.37
2023-01-25T11:06:35.506Z,40.23
2023-01-25T11:09:22.619Z,39.33
2023-01-25T11:11:56.714Z,40.17
2023-01-25T11:14:27.692Z,41.53
2023-01-25T11:16:56.141Z,41.73
2023-01-25T11:19:41.704Z,39.73
2023-01-25T11:22:20.378Z,40.87
2023-01-25T11:24:47.977Z,38.43
2023-01-25T11:27:20.272Z,38.00
2023-01-25T11:30:07.475Z,39.33
2023-01-25T11:32:35.069Z,39.20
2023-01-25T11:35:02.262Z,39.30
2023-01-25T11:37:38.596Z,38.83
2023-01-25T11:40:22.058Z,38.80
2023-01-25T11:43:03.511Z,39.87
2023-01-25T11:46:02.746Z,37.77
2023-01-25T11:48:29.919Z,36.67
2023-01-25T11:50:57.057Z,35.63
2023-01-25T11:53:36.405Z,37.90
2023-01-25T11:56:12.595Z,38.00
2023-01-25T11:58:58.457Z,35.77
2023-01-25T12:01:35.256Z,38.57
2023-01-25T12:04:05.506Z,34.97
2023-01-25T12:06:36.672Z,36.03
2023-01-25T12:09:05.181Z,36.80
2023-01-25T12:11:50.902Z,37.90
2023-01-25T12:14:41.300Z,38.20
2023-01-25T12:17:26.901Z,36.50
2023-01-25T12:20:02.758Z,36.70
2023-01-25T12:22:41.895Z,36.80
2023-01-25T12:25:18.139Z,36.37
2023-01-25T12:28:04.106Z,34.47
2023-01-25T12:30:46.680Z,32.97
2023-01-25T12:33:18.139Z,31.97
2023-01-25T12:35:55.603Z,31.97
2023-01-25T12:38:26.920Z,34.13
2023-01-25T12:41:03.245Z,34.40
2023-01-25T12:43:49.770Z,37.83
2023-01-25T12:46:22.477Z,34.80
2023-01-25T12:48:52.411Z,35.27
2023-01-25T12:51:20.776Z,36.20
2023-01-25T12:53:48.317Z,35.17
2023-01-25T12:56:40.759Z,34.97
2023-01-25T12:59:15.420Z,37.23
2023-01-25T13:01:49.927Z,32.93
2023-01-25T13:04:35.845Z,31.80
2023-01-25T13:07:18.149Z,31.73
2023-01-25T13:09:51.842Z,31.63
2023-01-25T13:12:19.123Z,31.37
2023-01-25T13:14:46.240Z,33.83
2023-01-25T13:17:21.754Z,32.87
2023-01-25T13:19:49.537Z,32.40
2023-01-25T13:22:36.680Z,34.20
2023-01-25T13:25:03.953Z,34.03
2023-01-25T13:27:34.754Z,34.20
2023-01-25T13:30:05.173Z,35.37
2023-01-25T13:32:32.279Z,34.97
2023-01-25T13:35:00.202Z,34.70
2023-01-25T13:37:29.233Z,33.53
2023-01-25T13:40:07.004Z,42.07
2023-01-25T13:42:39.055Z,35.57
2023-01-25T13:45:09.342Z,35.03
2023-01-25T13:47:40.942Z,34.97
2023-01-25T13:50:21.732Z,33.33
2023-01-25T13:53:06.060Z,33.83
2023-01-25T13:55:46.649Z,32.77
2023-01-25T13:58:22.006Z,34.93
2023-01-25T14:00:54.840Z,31.93
2023-01-25T14:03:34.584Z,33.07
2023-01-25T14:06:02.863Z,34.77
2023-01-25T14:08:30.472Z,33.83
2023-01-25T14:10:57.905Z,35.17
2023-01-25T14:13:25.440Z,34.67
2023-01-25T14:15:54.079Z,37.47
2023-01-25T14:18:22.331Z,38.77
2023-01-25T14:20:50.830Z,40.37
2023-01-25T14:23:28.064Z,38.50
2023-01-25T14:25:55.969Z,36.63
2023-01-25T14:28:23.462Z,37.37
2023-01-25T14:30:55.099Z,34.73
2023-01-25T14:33:22.415Z,36.27
2023-01-25T14:35:55.430Z,35.17
2023-01-25T14:38:23.809Z,35.77
2023-01-25T14:40:53.332Z,37.03
2023-01-25T14:43:20.703Z,43.27
2023-01-25T14:45:47.989Z,40.33
2023-01-25T14:48:34.113Z,40.17
2023-01-25T14:51:05.302Z,39.17
2023-01-25T14:53:32.531Z,38.50
2023-01-25T14:55:59.747Z,40.30
2023-01-25T14:58:29.095Z,40.60
2023-01-25T15:00:58.492Z,43.60
2023-01-25T15:03:26.753Z,40.60
2023-01-25T15:05:54.599Z,38.40
2023-01-25T15:08:28.346Z,35.80
2023-01-25T15:10:56.637Z,38.70
2023-01-25T15:13:25.093Z,37.57
2023-01-25T15:15:59.479Z,36.67
2023-01-25T15:18:42.504Z,39.80
2023-01-25T15:21:13.622Z,37.33
2023-01-25T15:23:42.231Z,36.27
2023-01-25T15:26:18.773Z,35.03
2023-01-25T15:28:46.226Z,36.33
2023-01-25T15:31:16.916Z,34.80
2023-01-25T15:33:44.313Z,35.63
2023-01-25T15:36:11.885Z,34.47
2023-01-25T15:38:39.183Z,34.13
2023-01-25T15:41:06.515Z,35.23
2023-01-25T15:43:33.756Z,35.50
2023-01-25T15:46:01.756Z,34.33
2023-01-25T15:48:36.528Z,36.57
2023-01-25T15:51:04.049Z,33.97
2023-01-25T15:53:31.270Z,34.90
2023-01-25T15:56:00.847Z,33.77
2023-01-25T15:58:33.813Z,33.57
2023-01-25T16:01:01.049Z,35.13
2023-01-25T16:03:28.966Z,33.93
2023-01-25T16:06:01.496Z,32.07
2023-01-25T16:08:29.182Z,32.47
2023-01-25T16:10:56.894Z,32.37
2023-01-25T16:13:24.846Z,32.77
2023-01-25T16:15:53.262Z,33.77
2023-01-25T16:18:20.722Z,33.20
2023-01-25T16:20:47.915Z,33.60
2023-01-25T16:23:15.188Z,33.70
2023-01-25T16:25:43.281Z,33.87
2023-01-25T16:28:19.320Z,33.40
2023-01-25T16:30:46.655Z,29.87
2023-01-25T16:33:13.920Z,32.00
2023-01-25T16:35:41.185Z,30.10
2023-01-25T16:38:11.278Z,31.47
2023-01-25T16:40:39.726Z,30.87
2023-01-25T16:43:07.023Z,30.97
2023-01-25T16:45:34.239Z,30.30
2023-01-25T16:48:02.052Z,31.73
2023-01-25T16:50:29.331Z,32.53
2023-01-25T16:52:56.979Z,29.50
2023-01-25T16:55:24.147Z,31.53
2023-01-25T16:57:51.798Z,29.80
2023-01-25T17:00:19.354Z,30.20
2023-01-25T17:02:58.336Z,30.57
2023-01-25T17:05:32.920Z,30.00
2023-01-25T17:08:00.160Z,28.73
2023-01-25T17:10:28.922Z,29.23
2023-01-25T17:12:56.132Z,29.90
2023-01-25T17:15:23.309Z,28.90
2023-01-25T17:17:50.861Z,28.93
2023-01-25T17:20:18.079Z,30.37
2023-01-25T17:22:49.672Z,29.67
2023-01-25T17:25:17.001Z,29.73
2023-01-25T17:27:44.160Z,32.20
2023-01-25T17:30:11.929Z,29.53
2023-01-25T17:32:40.913Z,29.73
2023-01-25T17:35:08.223Z,28.23
2023-01-25T17:37:35.462Z,29.57
2023-01-25T17:40:02.955Z,29.23
2023-01-25T17:42:30.108Z,29.30
2023-01-25T17:44:57.304Z,29.00
2023-01-25T17:47:24.654Z,34.77
2023-01-25T17:49:51.868Z,31.83
2023-01-25T17:52:18.757Z,29.83
2023-01-25T17:54:45.562Z,32.03
2023-01-25T17:57:12.415Z,34.10
2023-01-25T17:59:39.351Z,33.97
2023-01-25T18:02:06.549Z,33.63
2023-01-25T18:04:34.448Z,34.47
2023-01-25T18:07:01.281Z,34.10
2023-01-25T18:09:28.316Z,35.70
2023-01-25T18:11:55.207Z,33.53
2023-01-25T18:14:22.022Z,36.03
2023-01-25T18:16:48.785Z,36.70
2023-01-25T18:19:15.632Z,36.90
2023-01-25T18:21:43.304Z,37.03
2023-01-25T18:24:35.688Z,38.73
2023-01-25T18:27:24.924Z,37.57
2023-01-25T18:29:57.661Z,36.73
2023-01-25T18:32:24.668Z,36.40
2023-01-25T18:34:51.558Z,40.67
2023-01-25T18:37:20.525Z,36.60
2023-01-25T18:39:52.601Z,34.50
2023-01-25T18:42:20.473Z,35.43
2023-01-25T18:44:50.690Z,36.10
2023-01-25T18:47:18.885Z,37.77
2023-01-25T18:49:47.121Z,38.10
2023-01-25T18:52:13.953Z,38.47
2023-01-25T18:54:42.236Z,35.23
2023-01-25T18:57:10.611Z,37.43
2023-01-25T18:59:37.672Z,39.33
2023-01-25T19:02:04.714Z,40.27
2023-01-25T19:04:31.835Z,38.40
2023-01-25T19:07:01.375Z,37.40
2023-01-25T19:09:28.829Z,36.87
2023-01-25T19:11:56.201Z,39.37
2023-01-25T19:14:24.179Z,38.20
2023-01-25T19:16:51.463Z,37.63
2023-01-25T19:19:20.510Z,34.53
2023-01-25T19:21:47.773Z,35.97
2023-01-25T19:24:18.708Z,38.73
2023-01-25T19:26:50.369Z,36.93
2023-01-25T19:29:17.417Z,39.40
2023-01-25T19:31:44.317Z,36.13
2023-01-25T19:34:11.356Z,38.80
2023-01-25T19:36:43.701Z,38.07
2023-01-25T19:39:11.426Z,39.93
2023-01-25T19:41:41.158Z,41.63
2023-01-25T19:44:11.034Z,38.77
2023-01-25T19:46:38.035Z,44.80
2023-01-25T19:49:07.962Z,44.30
2023-01-25T19:51:37.543Z,44.27
2023-01-25T19:54:07.050Z,44.13
2023-01-25T19:56:36.608Z,41.27
2023-01-25T19:59:05.375Z,43.10
2023-01-25T20:01:32.539Z,43.53
2023-01-25T20:04:02.148Z,44.53
2023-01-25T20:06:29.278Z,43.87
2023-01-25T20:08:56.581Z,42.97
2023-01-25T20:11:29.453Z,42.27
2023-01-25T20:13:59.653Z,45.00
2023-01-25T20:16:27.798Z,43.83
2023-01-25T20:18:56.749Z,44.00
2023-01-25T20:46:40.198Z,44.50
2023-01-25T20:49:09.355Z,52.33
2023-01-25T20:51:42.032Z,44.43
2023-01-25T20:54:09.034Z,41.17
2023-01-25T20:56:36.556Z,44.20
2023-01-25T20:59:04.135Z,42.77
2023-01-25T21:01:44.833Z,44.07
2023-01-25T21:04:11.822Z,44.03
2023-01-25T21:06:38.869Z,41.10
2023-01-25T21:09:06.029Z,44.07
2023-01-25T21:11:33.148Z,42.10
2023-01-25T21:14:00.092Z,40.87
2023-01-25T21:16:27.479Z,43.87
2023-01-25T21:18:57.729Z,42.20
2023-01-25T21:21:27.945Z,44.47
2023-01-25T21:23:58.874Z,43.00
2023-01-25T21:26:31.525Z,40.27
2023-01-25T21:28:59.731Z,42.77
2023-01-25T21:31:28.921Z,42.07
2023-01-25T21:33:56.334Z,40.27
2023-01-25T21:36:23.905Z,42.63
2023-01-25T21:38:52.530Z,42.73
2023-01-25T21:41:22.304Z,43.33
2023-01-25T21:44:08.306Z,42.77
2023-01-25T21:46:35.522Z,45.23
2023-01-25T21:49:25.953Z,45.40
2023-01-25T21:51:55.982Z,44.43
2023-01-25T21:54:24.645Z,42.10
2023-01-25T21:56:52.702Z,42.27
2023-01-25T21:59:20.042Z,40.30
2023-01-25T22:01:47.357Z,39.97
2023-01-25T22:04:15.561Z,40.63
2023-01-25T22:06:42.799Z,40.70
2023-01-25T22:09:10.248Z,44.57
2023-01-25T22:11:37.564Z,42.77
2023-01-25T22:14:05.460Z,43.20
2023-01-25T22:16:32.931Z,51.77
2023-01-25T22:19:00.528Z,43.57
2023-01-25T22:21:30.770Z,42.73
2023-01-25T22:23:58.886Z,44.30
2023-01-25T22:26:27.186Z,44.60
2023-01-25T22:28:55.728Z,43.93
2023-01-25T22:31:30.437Z,44.90
2023-01-25T22:33:58.504Z,44.73
2023-01-25T22:36:27.015Z,40.83
2023-01-25T22:38:54.501Z,42.83
2023-01-25T22:41:26.116Z,40.67
2023-01-25T22:43:53.265Z,42.23
2023-01-25T22:46:21.507Z,42.57
2023-01-25T22:48:48.887Z,38.07
2023-01-25T22:51:19.997Z,39.63
2023-01-25T22:53:47.191Z,42.10
2023-01-25T22:56:18.497Z,40.13
2023-01-25T22:58:50.694Z,38.90
2023-01-25T23:01:19.196Z,40.30
2023-01-25T23:03:46.413Z,38.67
2023-01-25T23:06:14.717Z,35.90
2023-01-25T23:08:42.020Z,39.37
2023-01-25T23:11:11.819Z,38.43
2023-01-25T23:13:39.923Z,38.87
2023-01-25T23:16:08.317Z,39.00
2023-01-25T23:18:51.121Z,38.07
2023-01-25T23:21:19.790Z,38.17
2023-01-25T23:23:47.192Z,38.10
2023-01-25T23:26:15.453Z,35.70
2023-01-25T23:28:43.159Z,38.77
2023-01-25T23:31:11.594Z,40.97
2023-01-25T23:33:38.884Z,40.43
2023-01-25T23:36:10.898Z,38.47
2023-01-25T23:38:38.388Z,42.00
2023-01-25T23:41:05.916Z,38.60
2023-01-25T23:43:33.282Z,42.63
2023-01-25T23:46:00.687Z,40.37
2023-01-25T23:48:27.896Z,43.00
2023-01-25T23:50:57.740Z,42.63
2023-01-25T23:53:26.008Z,40.80
2023-01-25T23:55:57.902Z,40.10
2023-01-25T23:58:25.355Z,40.53
